Time;durP1;ratioP1;P1;durP2;ratioP2;P2;SDS_P1;SDS_P2;PMS_P1;PMS_P2;Temp;Humidity;BMP_temperature;BMP_pressure;BME280_temperature;BME280_humidity;BME280_pressure;Samples;Min_cycle;Max_cycle;Signal;HPM_P1;HPM_P2
2021/07/11 00:00:31;;;;;;;;;;;;;;;;;;5113672;28;19911;-60
2021/07/11 00:02:57;;;;;;;;;;;;;;;;;;5114745;28;19923;-59
2021/07/11 00:05:23;;;;;;;;;;;;;;;;;;5113193;28;20324;-58
2021/07/11 00:07:49;;;;;;;;;;;;;;;;;;5095293;28;19937;-59
2021/07/11 00:10:15;;;;;;;;;;;;;;;;;;5114005;27;19919;-59
2021/07/11 00:12:40;;;;;;;;;;;;;;;;;;5115294;27;19935;-59
2021/07/11 00:15:06;;;;;;;;;;;;;;;;;;5119652;27;19915;-59
2021/07/11 00:17:32;;;;;;;;;;;;;;;;;;5116581;27;20380;-59
2021/07/11 00:19:59;;;;;;;;;;;;;;;;;;5117116;27;19918;-59
2021/07/11 00:22:25;;;;;;;;;;;;;;;;;;5118876;27;20255;-59
2021/07/11 00:24:51;;;;;;;;;;;;;;;;;;5112780;28;19918;-59
2021/07/11 00:27:16;;;;;;;;;;;;;;;;;;5119984;27;19915;-59
2021/07/11 00:29:42;;;;;;;;;;;;;;;;;;5117136;27;20367;-59
2021/07/11 00:32:08;;;;;;;;;;;;;;;;;;5098673;28;19967;-59
2021/07/11 00:34:34;;;;;;;;;;;;;;;;;;5116753;27;19918;-59
2021/07/11 00:37:00;;;;;;;;;;;;;;;;;;5113294;27;19985;-59
2021/07/11 00:39:26;;;;;;;;;;;;;;;;;;5118058;27;19969;-59
2021/07/11 00:41:52;;;;;;;;;;;;;;;;;;5119385;27;19908;-59
2021/07/11 00:44:18;;;;;;;;;;;;;;;;;;5116571;27;19967;-59
2021/07/11 00:46:43;;;;;;;;;;;;;;;;;;5098108;27;19959;-59
2021/07/11 00:49:09;;;;;;;;;;;;;;;;;;5114790;27;20390;-59
2021/07/11 00:51:35;;;;;;;;;;;;;;;;;;5115968;27;19916;-59
2021/07/11 00:54:01;;;;;;;;;;;;;;;;;;5118449;27;19908;-59
2021/07/11 00:56:27;;;;;;;;;;;;;;;;;;5116339;27;19916;-60
2021/07/11 00:58:53;;;;;;;;;;;;;;;;;;5116325;27;19911;-59
2021/07/11 01:01:19;;;;;;;;;;;;;;;;;;5116570;27;19916;-58
2021/07/11 01:03:45;;;;;;;;;;;;;;;;;;5112963;27;19994;-59
2021/07/11 01:06:10;;;;;;;;;;;;;;;;;;5118820;27;19908;-59
2021/07/11 01:08:37;;;;;;;;;;;;;;;;;;5116109;27;20317;-59
2021/07/11 01:11:03;;;;;;;;;;;;;;;;;;5116066;27;19972;-59
2021/07/11 01:13:29;;;;;;;;;;;;;;;;;;5097716;27;19915;-59
2021/07/11 01:15:54;;;;;;;;;;;;;;;;;;5112481;28;19920;-59
2021/07/11 01:18:20;;;;;;;;;;;;;;;;;;5118247;27;19908;-59
2021/07/11 01:20:46;;;;;;;;;;;;;;;;;;5116032;27;19953;-59
2021/07/11 01:23:12;;;;;;;;;;;;;;;;;;5115668;27;19943;-59
2021/07/11 01:25:38;;;;;;;;;;;;;;;;;;5115805;27;20346;-59
2021/07/11 01:28:04;;;;;;;;;;;;;;;;;;5113871;27;19912;-59
2021/07/11 01:30:30;;;;;;;;;;;;;;;;;;5116109;27;20006;-59
2021/07/11 01:32:56;;;;;;;;;;;;;;;;;;5116519;27;19915;-59
2021/07/11 01:35:21;;;;;;;;;;;;;;;;;;5115788;27;19918;-59
2021/07/11 01:37:47;;;;;;;;;;;;;;;;;;5115812;27;19916;-59
2021/07/11 01:40:13;;;;;;;;;;;;;;;;;;5114751;27;19979;-59
2021/07/11 01:42:39;;;;;;;;;;;;;;;;;;5113763;27;19927;-59
2021/07/11 01:45:05;;;;;;;;;;;;;;;;;;5117880;27;20311;-59
2021/07/11 01:47:31;;;;;;;;;;;;;;;;;;5115460;27;19911;-59
2021/07/11 01:49:57;;;;;;;;;;;;;;;;;;5115591;27;20214;-59
2021/07/11 01:52:23;;;;;;;;;;;;;;;;;;5115243;27;19920;-58
2021/07/11 01:54:48;;;;;;;;;;;;;;;;;;5110853;28;19911;-59
2021/07/11 01:57:14;;;;;;;;;;;;;;;;;;5118980;27;19950;-58
2021/07/11 01:59:40;;;;;;;;;;;;;;;;;;5114961;27;19912;-58
2021/07/11 02:02:06;;;;;;;;;;;;;;;;;;5115227;27;19916;-59
2021/07/11 02:04:32;;;;;;;;;;;;;;;;;;5114995;27;20349;-59
2021/07/11 02:06:58;;;;;;;;;;;;;;;;;;5111999;27;19955;-59
2021/07/11 02:09:24;;;;;;;;;;;;;;;;;;5116563;27;19954;-59
2021/07/11 02:11:50;;;;;;;;;;;;;;;;;;5115457;27;20282;-59
2021/07/11 02:14:16;;;;;;;;;;;;;;;;;;5114704;27;19912;-59
2021/07/11 02:16:42;;;;;;;;;;;;;;;;;;5115056;27;19957;-59
2021/07/11 02:19:08;;;;;;;;;;;;;;;;;;5113362;27;19951;-58
2021/07/11 02:21:34;;;;;;;;;;;;;;;;;;5114871;27;19966;-59
2021/07/11 02:24:00;;;;;;;;;;;;;;;;;;5115960;27;19926;-59
2021/07/11 02:26:25;;;;;;;;;;;;;;;;;;5114500;27;19966;-59
2021/07/11 02:28:52;;;;;;;;;;;;;;;;;;5114951;27;19937;-59
2021/07/11 02:31:18;;;;;;;;;;;;;;;;;;5113620;27;19926;-59
2021/07/11 02:33:43;;;;;;;;;;;;;;;;;;5111812;28;20392;-59
2021/07/11 02:36:09;;;;;;;;;;;;;;;;;;5117089;27;19908;-59
2021/07/11 02:38:36;;;;;;;;;;;;;;;;;;5114637;27;19919;-59
2021/07/11 02:41:02;;;;;;;;;;;;;;;;;;5114175;27;19985;-58
2021/07/11 02:43:28;;;;;;;;;;;;;;;;;;5114570;27;19929;-59
2021/07/11 02:45:54;;;;;;;;;;;;;;;;;;5110015;28;19972;-59
2021/07/11 02:48:20;;;;;;;;;;;;;;;;;;5116885;27;20275;-59
2021/07/11 02:50:46;;;;;;;;;;;;;;;;;;5116287;27;19914;-59
2021/07/11 02:53:11;;;;;;;;;;;;;;;;;;5114175;27;20451;-59
2021/07/11 02:55:37;;;;;;;;;;;;;;;;;;5114421;27;19915;-59
2021/07/11 02:58:03;;;;;;;;;;;;;;;;;;5111178;27;19912;-59
2021/07/11 03:00:29;;;;;;;;;;;;;;;;;;5114709;27;19908;-59
2021/07/11 03:02:56;;;;;;;;;;;;;;;;;;5115459;27;20283;-59
2021/07/11 03:05:22;;;;;;;;;;;;;;;;;;5114365;27;19998;-59
2021/07/11 03:07:48;;;;;;;;;;;;;;;;;;5113572;27;20327;-59
2021/07/11 03:10:14;;;;;;;;;;;;;;;;;;5112877;27;19919;-60
2021/07/11 03:12:40;;;;;;;;;;;;;;;;;;5111918;27;19928;-58
2021/07/11 03:15:08;;;;;;;;;;;;;;;;;;5115551;27;20397;-59
2021/07/11 03:17:33;;;;;;;;;;;;;;;;;;5114182;28;19985;-59
2021/07/11 03:19:59;;;;;;;;;;;;;;;;;;5113418;27;19947;-59
2021/07/11 03:22:25;;;;;;;;;;;;;;;;;;5113887;27;19912;-59
2021/07/11 03:24:53;;;;;;;;;;;;;;;;;;5109999;28;19919;-59
2021/07/11 03:27:19;;;;;;;;;;;;;;;;;;5116577;27;19962;-59
2021/07/11 03:30:04;;;;;;;;;;;;;;;;;;5114977;27;19939;-60
2021/07/11 03:32:30;;;;;;;;;;;;;;;;;;5113843;28;20375;-59
2021/07/11 03:34:56;;;;;;;;;;;;;;;;;;5113835;28;19947;-59
2021/07/11 03:37:21;;;;;;;;;;;;;;;;;;5113824;28;19912;-58
2021/07/11 03:39:47;;;;;;;;;;;;;;;;;;5109702;28;19912;-58
2021/07/11 03:42:13;;;;;;;;;;;;;;;;;;5116386;28;19965;-58
2021/07/11 03:44:40;;;;;;;;;;;;;;;;;;5114758;28;19916;-58
2021/07/11 03:47:06;;;;;;;;;;;;;;;;;;5118148;27;20192;-69
2021/07/11 03:49:32;;;;;;;;;;;;;;;;;;5117209;27;20331;-69
2021/07/11 03:51:58;;;;;;;;;;;;;;;;;;5114548;27;19920;-68
2021/07/11 03:54:24;;;;;;;;;;;;;;;;;;5119635;27;19912;-68
2021/07/11 03:56:50;;;;;;;;;;;;;;;;;;5118370;27;19908;-69
2021/07/11 03:59:16;;;;;;;;;;;;;;;;;;5117338;27;19912;-69
2021/07/11 04:01:42;;;;;;;;;;;;;;;;;;5117713;27;19963;-69
2021/07/11 04:04:08;;;;;;;;;;;;;;;;;;5115396;27;19938;-69
2021/07/11 04:06:33;;;;;;;;;;;;;;;;;;5117607;27;19907;-69
2021/07/11 04:08:59;;;;;;;;;;;;;;;;;;5118682;27;19908;-68
2021/07/11 04:11:25;;;;;;;;;;;;;;;;;;5116590;27;19927;-68
2021/07/11 04:13:51;;;;;;;;;;;;;;;;;;5117512;27;19911;-69
2021/07/11 04:16:17;;;;;;;;;;;;;;;;;;5117075;27;19990;-69
2021/07/11 04:18:43;;;;;;;;;;;;;;;;;;5113993;27;20444;-69
2021/07/11 04:21:09;;;;;;;;;;;;;;;;;;5120100;27;20363;-69
2021/07/11 04:23:35;;;;;;;;;;;;;;;;;;5117448;27;20288;-68
2021/07/11 04:26:01;;;;;;;;;;;;;;;;;;5116741;27;19965;-69
2021/07/11 04:28:26;;;;;;;;;;;;;;;;;;5117040;27;19915;-69
2021/07/11 04:30:52;;;;;;;;;;;;;;;;;;5113080;27;19912;-69
2021/07/11 04:33:18;;;;;;;;;;;;;;;;;;5119539;27;19923;-68
2021/07/11 04:35:44;;;;;;;;;;;;;;;;;;5117164;27;19919;-68
2021/07/11 04:38:10;;;;;;;;;;;;;;;;;;5098764;28;19912;-68
2021/07/11 04:40:36;;;;;;;;;;;;;;;;;;5116612;27;19919;-68
2021/07/11 04:43:02;;;;;;;;;;;;;;;;;;5113663;27;19956;-68
2021/07/11 04:45:28;;;;;;;;;;;;;;;;;;5117526;27;19914;-68
2021/07/11 04:47:54;;;;;;;;;;;;;;;;;;5117530;27;19908;-69
2021/07/11 04:50:19;;;;;;;;;;;;;;;;;;5116663;27;20049;-68
2021/07/11 04:52:46;;;;;;;;;;;;;;;;;;5116415;27;20307;-69
2021/07/11 04:55:12;;;;;;;;;;;;;;;;;;5117193;27;20377;-68
2021/07/11 04:57:38;;;;;;;;;;;;;;;;;;5119441;27;19994;-69
2021/07/11 05:00:03;;;;;;;;;;;;;;;;;;5124655;27;19912;-69
2021/07/11 05:02:29;;;;;;;;;;;;;;;;;;5123160;27;20359;-68
2021/07/11 05:04:55;;;;;;;;;;;;;;;;;;5121167;27;19965;-70
2021/07/11 05:07:21;;;;;;;;;;;;;;;;;;5122329;27;20287;-68
2021/07/11 05:09:47;;;;;;;;;;;;;;;;;;5121835;27;20093;-68
2021/07/11 05:12:13;;;;;;;;;;;;;;;;;;5099432;28;19916;-68
2021/07/11 05:14:39;;;;;;;;;;;;;;;;;;5100507;28;19918;-68
2021/07/11 05:17:05;;;;;;;;;;;;;;;;;;5100610;28;19965;-68
2021/07/11 05:19:31;;;;;;;;;;;;;;;;;;5100475;28;19912;-68
2021/07/11 05:21:56;;;;;;;;;;;;;;;;;;5096393;28;19912;-68
2021/07/11 05:24:22;;;;;;;;;;;;;;;;;;5079588;28;19908;-68
2021/07/11 05:26:48;;;;;;;;;;;;;;;;;;5097890;28;19908;-69
2021/07/11 05:29:14;;;;;;;;;;;;;;;;;;5100397;28;20370;-68
2021/07/11 05:31:40;;;;;;;;;;;;;;;;;;5100264;28;19956;-68
2021/07/11 05:34:06;;;;;;;;;;;;;;;;;;5097475;28;19923;-68
2021/07/11 05:36:32;;;;;;;;;;;;;;;;;;5097862;28;20013;-68
2021/07/11 05:38:58;;;;;;;;;;;;;;;;;;5098570;28;20294;-68
2021/07/11 05:41:23;;;;;;;;;;;;;;;;;;5113157;27;19907;-68
2021/07/11 05:43:49;;;;;;;;;;;;;;;;;;5123136;27;20522;-69
2021/07/11 05:46:15;;;;;;;;;;;;;;;;;;5124012;27;19917;-67
2021/07/11 05:48:41;;;;;;;;;;;;;;;;;;5113489;27;20356;-66
2021/07/11 05:51:07;;;;;;;;;;;;;;;;;;5117701;27;19915;-67
2021/07/11 05:53:33;;;;;;;;;;;;;;;;;;5115486;27;20002;-68
2021/07/11 05:55:59;;;;;;;;;;;;;;;;;;5115596;27;19912;-67
2021/07/11 05:58:25;;;;;;;;;;;;;;;;;;5115224;27;20044;-67
2021/07/11 06:00:50;;;;;;;;;;;;;;;;;;5110847;28;19919;-67
2021/07/11 06:03:17;;;;;;;;;;;;;;;;;;5118850;27;19960;-67
2021/07/11 06:05:43;;;;;;;;;;;;;;;;;;5115414;27;19912;-67
2021/07/11 06:08:09;;;;;;;;;;;;;;;;;;5114454;27;19911;-66
2021/07/11 06:10:35;;;;;;;;;;;;;;;;;;5115246;27;19980;-67
2021/07/11 06:13:01;;;;;;;;;;;;;;;;;;5112467;27;19920;-68
2021/07/11 06:15:27;;;;;;;;;;;;;;;;;;5116051;27;19911;-68
2021/07/11 06:17:53;;;;;;;;;;;;;;;;;;5117048;27;20351;-66
2021/07/11 06:20:18;;;;;;;;;;;;;;;;;;5115161;27;19912;-67
2021/07/11 06:22:44;;;;;;;;;;;;;;;;;;5114537;27;20372;-69
2021/07/11 06:25:10;;;;;;;;;;;;;;;;;;5121670;27;20428;-68
2021/07/11 06:27:36;;;;;;;;;;;;;;;;;;5120535;27;19908;-67
2021/07/11 06:30:02;;;;;;;;;;;;;;;;;;5122125;27;20021;-67
2021/07/11 06:32:28;;;;;;;;;;;;;;;;;;5121367;27;19949;-67
2021/07/11 06:34:54;;;;;;;;;;;;;;;;;;5122805;27;20379;-68
2021/07/11 06:37:20;;;;;;;;;;;;;;;;;;5123059;27;19933;-68
2021/07/11 06:39:46;;;;;;;;;;;;;;;;;;5111358;28;19912;-68
2021/07/11 06:42:12;;;;;;;;;;;;;;;;;;5099032;28;19958;-68
2021/07/11 06:44:37;;;;;;;;;;;;;;;;;;5109628;27;19923;-68
2021/07/11 06:47:04;;;;;;;;;;;;;;;;;;5112770;27;20332;-68
2021/07/11 06:49:30;;;;;;;;;;;;;;;;;;5106317;27;19911;-68
2021/07/11 06:51:55;;;;;;;;;;;;;;;;;;5106042;27;19927;-68
2021/07/11 06:54:21;;;;;;;;;;;;;;;;;;5094946;28;20355;-68
2021/07/11 06:56:47;;;;;;;;;;;;;;;;;;5111581;27;19955;-68
2021/07/11 06:59:13;;;;;;;;;;;;;;;;;;5109508;27;19922;-69
2021/07/11 07:01:39;;;;;;;;;;;;;;;;;;5111258;27;19918;-69
2021/07/11 07:04:05;;;;;;;;;;;;;;;;;;5108670;27;19916;-69
2021/07/11 07:06:31;;;;;;;;;;;;;;;;;;5111225;27;19911;-69
2021/07/11 07:08:57;;;;;;;;;;;;;;;;;;5100786;27;19916;-69
2021/07/11 07:11:22;;;;;;;;;;;;;;;;;;5108690;27;20418;-69
2021/07/11 07:13:48;;;;;;;;;;;;;;;;;;5115184;27;19921;-69
2021/07/11 07:16:14;;;;;;;;;;;;;;;;;;5125580;27;20256;-69
2021/07/11 07:18:40;;;;;;;;;;;;;;;;;;5111832;28;19920;-69
2021/07/11 07:21:06;;;;;;;;;;;;;;;;;;5112853;28;20002;-69
2021/07/11 07:23:32;;;;;;;;;;;;;;;;;;5111886;27;19965;-69
2021/07/11 07:25:58;;;;;;;;;;;;;;;;;;5114643;27;20327;-69
2021/07/11 07:28:24;;;;;;;;;;;;;;;;;;5112590;28;19918;-69
2021/07/11 07:30:49;;;;;;;;;;;;;;;;;;5108835;28;19995;-69
2021/07/11 07:33:15;;;;;;;;;;;;;;;;;;5115565;28;19962;-69
2021/07/11 07:35:41;;;;;;;;;;;;;;;;;;5110800;28;19912;-67
2021/07/11 07:38:07;;;;;;;;;;;;;;;;;;5112383;28;19916;-70
2021/07/11 07:40:33;;;;;;;;;;;;;;;;;;5112308;28;20341;-68
2021/07/11 07:42:59;;;;;;;;;;;;;;;;;;5109244;28;20443;-69
2021/07/11 07:45:25;;;;;;;;;;;;;;;;;;5127811;28;19915;-70
2021/07/11 07:47:51;;;;;;;;;;;;;;;;;;5102898;28;20256;-69
2021/07/11 07:50:16;;;;;;;;;;;;;;;;;;5113292;28;19918;-69
2021/07/11 07:52:42;;;;;;;;;;;;;;;;;;5113383;28;19919;-67
2021/07/11 07:55:08;;;;;;;;;;;;;;;;;;5110992;28;19920;-67
2021/07/11 07:57:34;;;;;;;;;;;;;;;;;;5112664;28;19958;-68
2021/07/11 08:00:00;;;;;;;;;;;;;;;;;;5114784;28;19908;-67
2021/07/11 08:02:26;;;;;;;;;;;;;;;;;;5113813;28;19919;-67
2021/07/11 08:04:52;;;;;;;;;;;;;;;;;;5113664;28;19912;-67
2021/07/11 08:07:24;;;;;;;;;;;;;;;;;;5112214;28;19968;-69
2021/07/11 08:09:50;;;;;;;;;;;;;;;;;;5108950;28;20394;-66
2021/07/11 08:12:16;;;;;;;;;;;;;;;;;;5116731;28;19916;-69
2021/07/11 08:14:42;;;;;;;;;;;;;;;;;;5122684;28;19911;-69
2021/07/11 08:17:07;;;;;;;;;;;;;;;;;;5116472;28;19920;-69
2021/07/11 08:19:33;;;;;;;;;;;;;;;;;;5112713;28;20270;-69
2021/07/11 08:21:59;;;;;;;;;;;;;;;;;;5107923;28;20309;-69
2021/07/11 08:24:25;;;;;;;;;;;;;;;;;;5094842;28;19915;-69
2021/07/11 08:26:51;;;;;;;;;;;;;;;;;;5112367;28;20460;-69
2021/07/11 08:29:17;;;;;;;;;;;;;;;;;;5111181;28;19941;-68
2021/07/11 08:31:43;;;;;;;;;;;;;;;;;;5114989;27;19919;-68
2021/07/11 08:34:09;;;;;;;;;;;;;;;;;;5115117;27;20332;-69
2021/07/11 08:36:35;;;;;;;;;;;;;;;;;;5098230;28;19911;-70
2021/07/11 08:39:01;;;;;;;;;;;;;;;;;;5118389;27;19908;-70
2021/07/11 08:41:27;;;;;;;;;;;;;;;;;;5116763;27;20375;-69
2021/07/11 08:43:53;;;;;;;;;;;;;;;;;;5116848;27;19973;-69
2021/07/11 08:46:19;;;;;;;;;;;;;;;;;;5116401;27;19911;-68
2021/07/11 08:48:47;;;;;;;;;;;;;;;;;;5113719;27;20333;-69
2021/07/11 08:51:13;;;;;;;;;;;;;;;;;;5119529;27;19912;-69
2021/07/11 08:53:39;;;;;;;;;;;;;;;;;;5116751;27;19919;-70
2021/07/11 08:56:05;;;;;;;;;;;;;;;;;;5116808;27;19915;-69
2021/07/11 08:58:31;;;;;;;;;;;;;;;;;;5116082;27;20343;-71
2021/07/11 09:00:57;;;;;;;;;;;;;;;;;;5112517;28;19954;-71
2021/07/11 09:03:23;;;;;;;;;;;;;;;;;;5119085;27;19908;-71
2021/07/11 09:05:49;;;;;;;;;;;;;;;;;;5117170;27;20007;-71
2021/07/11 09:08:19;;;;;;;;;;;;;;;;;;5116151;27;19911;-71
2021/07/11 09:10:45;;;;;;;;;;;;;;;;;;5116161;27;20042;-71
2021/07/11 09:13:11;;;;;;;;;;;;;;;;;;5114383;27;20026;-71
2021/07/11 09:15:37;;;;;;;;;;;;;;;;;;5097060;28;20320;-70
2021/07/11 09:18:03;;;;;;;;;;;;;;;;;;5118009;27;19907;-71
2021/07/11 09:20:29;;;;;;;;;;;;;;;;;;5116445;27;19919;-70
2021/07/11 09:22:55;;;;;;;;;;;;;;;;;;5115797;27;19912;-70
2021/07/11 09:25:21;;;;;;;;;;;;;;;;;;5115799;27;20319;-70
2021/07/11 09:27:46;;;;;;;;;;;;;;;;;;5112398;27;19912;-71
2021/07/11 09:30:15;;;;;;;;;;;;;;;;;;5118826;27;20354;-71
2021/07/11 09:32:41;;;;;;;;;;;;;;;;;;5115992;27;19949;-71
2021/07/11 09:35:07;;;;;;;;;;;;;;;;;;5115670;27;20316;-71
2021/07/11 09:37:32;;;;;;;;;;;;;;;;;;5115632;27;20496;-71
2021/07/11 09:39:58;;;;;;;;;;;;;;;;;;5112281;27;19916;-71
2021/07/11 09:42:24;;;;;;;;;;;;;;;;;;5117055;27;20104;-71
2021/07/11 09:44:50;;;;;;;;;;;;;;;;;;5116243;27;19947;-70
2021/07/11 09:47:16;;;;;;;;;;;;;;;;;;5115791;27;19912;-70
2021/07/11 09:49:42;;;;;;;;;;;;;;;;;;5115409;27;19911;-70
2021/07/11 09:52:08;;;;;;;;;;;;;;;;;;5113149;27;20010;-70
2021/07/11 09:54:34;;;;;;;;;;;;;;;;;;5115712;27;19912;-70
2021/07/11 09:57:00;;;;;;;;;;;;;;;;;;5116726;27;19908;-70
2021/07/11 09:59:25;;;;;;;;;;;;;;;;;;5115242;27;19919;-70
2021/07/11 10:01:51;;;;;;;;;;;;;;;;;;5096443;28;20286;-70
2021/07/11 10:04:17;;;;;;;;;;;;;;;;;;5096342;27;19936;-70
2021/07/11 10:06:43;;;;;;;;;;;;;;;;;;5112831;27;19911;-70
2021/07/11 10:09:09;;;;;;;;;;;;;;;;;;5117675;27;19908;-70
2021/07/11 10:11:35;;;;;;;;;;;;;;;;;;5096621;28;19977;-69
2021/07/11 10:14:01;;;;;;;;;;;;;;;;;;5114893;27;20345;-70
2021/07/11 10:16:27;;;;;;;;;;;;;;;;;;5114778;27;19957;-70
2021/07/11 10:18:52;;;;;;;;;;;;;;;;;;5110858;27;20481;-70
2021/07/11 10:21:18;;;;;;;;;;;;;;;;;;5118387;27;19916;-70
2021/07/11 10:23:44;;;;;;;;;;;;;;;;;;5114368;27;19919;-70
2021/07/11 10:26:13;;;;;;;;;;;;;;;;;;5115007;27;19912;-70
2021/07/11 10:28:39;;;;;;;;;;;;;;;;;;5114821;27;20312;-70
2021/07/11 10:31:05;;;;;;;;;;;;;;;;;;5111838;27;19937;-70
2021/07/11 10:33:31;;;;;;;;;;;;;;;;;;5114919;27;19916;-70
2021/07/11 10:35:57;;;;;;;;;;;;;;;;;;5116123;27;19932;-70
2021/07/11 10:38:23;;;;;;;;;;;;;;;;;;5114735;27;19919;-69
2021/07/11 10:40:48;;;;;;;;;;;;;;;;;;5107178;28;20364;-70
2021/07/11 10:43:14;;;;;;;;;;;;;;;;;;5097063;28;19912;-70
2021/07/11 10:45:40;;;;;;;;;;;;;;;;;;5095314;28;20009;-70
2021/07/11 10:48:07;;;;;;;;;;;;;;;;;;5097108;28;20252;-70
2021/07/11 10:50:32;;;;;;;;;;;;;;;;;;5098548;28;19912;-70
2021/07/11 10:52:58;;;;;;;;;;;;;;;;;;5098211;28;19931;-70
2021/07/11 10:55:24;;;;;;;;;;;;;;;;;;5097685;28;19911;-70
2021/07/11 10:57:50;;;;;;;;;;;;;;;;;;5093810;28;19948;-70
2021/07/11 11:00:16;;;;;;;;;;;;;;;;;;5094512;28;19908;-70
2021/07/11 11:02:43;;;;;;;;;;;;;;;;;;5098733;28;20322;-70
2021/07/11 11:05:13;;;;;;;;;;;;;;;;;;5098418;28;20347;-69
2021/07/11 11:07:39;;;;;;;;;;;;;;;;;;5099172;28;19916;-69
2021/07/11 11:10:05;;;;;;;;;;;;;;;;;;5109038;28;19937;-69
2021/07/11 11:12:31;;;;;;;;;;;;;;;;;;5095422;28;19916;-69
2021/07/11 11:14:56;;;;;;;;;;;;;;;;;;5097627;28;19919;-69
2021/07/11 11:17:22;;;;;;;;;;;;;;;;;;5102355;28;19912;-69
2021/07/11 11:19:48;;;;;;;;;;;;;;;;;;5097258;28;19927;-69
2021/07/11 11:22:14;;;;;;;;;;;;;;;;;;5096213;28;19954;-68
2021/07/11 11:24:40;;;;;;;;;;;;;;;;;;5094827;28;20443;-69
2021/07/11 11:27:06;;;;;;;;;;;;;;;;;;5096666;28;19908;-69
2021/07/11 11:29:32;;;;;;;;;;;;;;;;;;5097934;28;19935;-69
2021/07/11 11:31:58;;;;;;;;;;;;;;;;;;5097173;28;19977;-69
2021/07/11 11:34:24;;;;;;;;;;;;;;;;;;5097667;28;19951;-69
2021/07/11 11:36:51;;;;;;;;;;;;;;;;;;5092697;28;19982;-69
2021/07/11 11:39:17;;;;;;;;;;;;;;;;;;5108161;28;19994;-70
2021/07/11 11:41:43;;;;;;;;;;;;;;;;;;5097045;28;20030;-69
2021/07/11 11:44:09;;;;;;;;;;;;;;;;;;5097614;28;19919;-69
2021/07/11 11:46:35;;;;;;;;;;;;;;;;;;5104051;28;19951;-69
2021/07/11 11:49:01;;;;;;;;;;;;;;;;;;5110293;28;19947;-59
2021/07/11 11:51:27;;;;;;;;;;;;;;;;;;5096452;28;19930;-59
2021/07/11 11:53:53;;;;;;;;;;;;;;;;;;5116003;28;20388;-59
2021/07/11 11:56:19;;;;;;;;;;;;;;;;;;5113117;28;19983;-60
2021/07/11 11:58:44;;;;;;;;;;;;;;;;;;5113459;28;19911;-60
2021/07/11 12:01:13;;;;;;;;;;;;;;;;;;5111848;28;19951;-60
2021/07/11 12:03:39;;;;;;;;;;;;;;;;;;5106442;28;19915;-60
2021/07/11 12:06:05;;;;;;;;;;;;;;;;;;5117747;28;19908;-60
2021/07/11 12:08:31;;;;;;;;;;;;;;;;;;5112295;27;19964;-60
2021/07/11 12:10:58;;;;;;;;;;;;;;;;;;5117216;27;20405;-60
2021/07/11 12:13:24;;;;;;;;;;;;;;;;;;5116236;27;19927;-60
2021/07/11 12:15:50;;;;;;;;;;;;;;;;;;5127675;27;19915;-60
2021/07/11 12:18:17;;;;;;;;;;;;;;;;;;5120323;27;20014;-60
2021/07/11 12:20:43;;;;;;;;;;;;;;;;;;5117452;27;19934;-60
2021/07/11 12:23:08;;;;;;;;;;;;;;;;;;5120172;27;19915;-60
2021/07/11 12:25:37;;;;;;;;;;;;;;;;;;5124333;27;20297;-60
2021/07/11 12:28:03;;;;;;;;;;;;;;;;;;5124908;27;19969;-60
2021/07/11 12:30:29;;;;;;;;;;;;;;;;;;5125415;27;19908;-60
2021/07/11 12:32:55;;;;;;;;;;;;;;;;;;5125741;27;20026;-60
2021/07/11 12:35:22;;;;;;;;;;;;;;;;;;5127530;27;19980;-60
2021/07/11 12:37:48;;;;;;;;;;;;;;;;;;5124840;27;19916;-60
2021/07/11 12:40:14;;;;;;;;;;;;;;;;;;5114288;27;19965;-60
2021/07/11 12:42:40;;;;;;;;;;;;;;;;;;5119565;27;20401;-60
2021/07/11 12:45:06;;;;;;;;;;;;;;;;;;5124685;27;19911;-60
2021/07/11 12:47:31;;;;;;;;;;;;;;;;;;5124191;27;19908;-60
2021/07/11 12:49:57;;;;;;;;;;;;;;;;;;5124904;27;19973;-60
2021/07/11 12:52:23;;;;;;;;;;;;;;;;;;5122349;27;19915;-60
2021/07/11 12:54:49;;;;;;;;;;;;;;;;;;5122932;27;19923;-61
2021/07/11 12:57:15;;;;;;;;;;;;;;;;;;5125992;27;19915;-60
2021/07/11 12:59:41;;;;;;;;;;;;;;;;;;5128431;27;19998;-61
2021/07/11 13:02:07;;;;;;;;;;;;;;;;;;5119704;27;19911;-60
2021/07/11 13:04:33;;;;;;;;;;;;;;;;;;5105464;27;19912;-60
2021/07/11 13:06:59;;;;;;;;;;;;;;;;;;5110833;28;19946;-60
2021/07/11 13:09:24;;;;;;;;;;;;;;;;;;5104439;28;20358;-60
2021/07/11 13:11:50;;;;;;;;;;;;;;;;;;5100075;28;19978;-60
2021/07/11 13:14:16;;;;;;;;;;;;;;;;;;5103953;28;19918;-60
2021/07/11 13:16:42;;;;;;;;;;;;;;;;;;5110837;28;19916;-60
2021/07/11 13:19:08;;;;;;;;;;;;;;;;;;5111301;28;20049;-60
2021/07/11 13:21:34;;;;;;;;;;;;;;;;;;5109992;28;19918;-60
2021/07/11 13:24:00;;;;;;;;;;;;;;;;;;5111792;28;19908;-60
2021/07/11 13:26:26;;;;;;;;;;;;;;;;;;5115150;27;20006;-60
2021/07/11 13:28:52;;;;;;;;;;;;;;;;;;5115517;27;19951;-60
2021/07/11 13:31:22;;;;;;;;;;;;;;;;;;5114421;27;19964;-60
2021/07/11 13:33:48;;;;;;;;;;;;;;;;;;5113973;27;20396;-60
2021/07/11 13:36:14;;;;;;;;;;;;;;;;;;5118483;27;19998;-60
2021/07/11 13:38:40;;;;;;;;;;;;;;;;;;5114329;27;19911;-60
2021/07/11 13:41:05;;;;;;;;;;;;;;;;;;5115373;27;19912;-60
2021/07/11 13:43:31;;;;;;;;;;;;;;;;;;5115509;27;20376;-60
2021/07/11 13:45:57;;;;;;;;;;;;;;;;;;5111510;28;19958;-60
2021/07/11 13:48:23;;;;;;;;;;;;;;;;;;5117242;27;19915;-60
2021/07/11 13:50:49;;;;;;;;;;;;;;;;;;5115714;27;19930;-60
2021/07/11 13:53:16;;;;;;;;;;;;;;;;;;5114452;27;19920;-60
2021/07/11 13:55:42;;;;;;;;;;;;;;;;;;5116797;27;19989;-60
2021/07/11 13:58:09;;;;;;;;;;;;;;;;;;5112799;27;19948;-60
2021/07/11 14:00:36;;;;;;;;;;;;;;;;;;5114085;27;19911;-60
2021/07/11 14:03:01;;;;;;;;;;;;;;;;;;5097283;28;19960;-60
2021/07/11 14:05:27;;;;;;;;;;;;;;;;;;5114777;27;19916;-60
2021/07/11 14:07:53;;;;;;;;;;;;;;;;;;5114351;27;19912;-60
2021/07/11 14:10:19;;;;;;;;;;;;;;;;;;5113214;27;20298;-60
2021/07/11 14:12:45;;;;;;;;;;;;;;;;;;5111487;27;20649;-60
2021/07/11 14:15:12;;;;;;;;;;;;;;;;;;5116991;27;19956;-60
2021/07/11 14:17:38;;;;;;;;;;;;;;;;;;5114503;27;19922;-60
2021/07/11 14:20:04;;;;;;;;;;;;;;;;;;5113840;27;20003;-60
2021/07/11 14:22:30;;;;;;;;;;;;;;;;;;5115226;27;19954;-60
2021/07/11 14:24:56;;;;;;;;;;;;;;;;;;5111338;28;22803;-60
2021/07/11 14:27:22;;;;;;;;;;;;;;;;;;5114108;27;20242;-60
2021/07/11 14:29:48;;;;;;;;;;;;;;;;;;5112110;27;19947;-59
2021/07/11 14:32:13;;;;;;;;;;;;;;;;;;5111349;27;19961;-60
2021/07/11 14:34:39;;;;;;;;;;;;;;;;;;5112528;27;20410;-59
2021/07/11 14:37:05;;;;;;;;;;;;;;;;;;5111289;28;19915;-59
2021/07/11 14:39:31;;;;;;;;;;;;;;;;;;5113577;27;19912;-60
2021/07/11 14:41:57;;;;;;;;;;;;;;;;;;5116399;27;19911;-60
2021/07/11 14:44:23;;;;;;;;;;;;;;;;;;5112657;27;20522;-59
2021/07/11 14:46:49;;;;;;;;;;;;;;;;;;5113272;28;19915;-60
2021/07/11 14:49:15;;;;;;;;;;;;;;;;;;5111158;28;19915;-60
2021/07/11 14:51:41;;;;;;;;;;;;;;;;;;5112758;27;19916;-58
2021/07/11 14:54:07;;;;;;;;;;;;;;;;;;5112952;28;19914;-60
2021/07/11 14:56:33;;;;;;;;;;;;;;;;;;5112614;27;20239;-59
2021/07/11 14:58:59;;;;;;;;;;;;;;;;;;5112994;27;20374;-59
2021/07/11 15:01:25;;;;;;;;;;;;;;;;;;5111040;28;20396;-58
2021/07/11 15:03:51;;;;;;;;;;;;;;;;;;5111880;27;19948;-59
2021/07/11 15:06:17;;;;;;;;;;;;;;;;;;5113580;28;19915;-59
2021/07/11 15:08:43;;;;;;;;;;;;;;;;;;5111765;27;19911;-59
2021/07/11 15:11:09;;;;;;;;;;;;;;;;;;5112906;28;20449;-60
2021/07/11 15:13:36;;;;;;;;;;;;;;;;;;5112590;27;19926;-60
2021/07/11 15:16:01;;;;;;;;;;;;;;;;;;5107805;28;20002;-59
2021/07/11 15:18:27;;;;;;;;;;;;;;;;;;5112953;28;19958;-59
2021/07/11 15:20:53;;;;;;;;;;;;;;;;;;5112514;27;19911;-60
2021/07/11 15:23:19;;;;;;;;;;;;;;;;;;5111384;28;20367;-60
2021/07/11 15:25:45;;;;;;;;;;;;;;;;;;5106581;27;20540;-60
2021/07/11 15:28:11;;;;;;;;;;;;;;;;;;5112410;28;19964;-60
2021/07/11 15:30:37;;;;;;;;;;;;;;;;;;5111194;27;20291;-60
2021/07/11 15:33:03;;;;;;;;;;;;;;;;;;5113295;28;19943;-61
2021/07/11 15:35:29;;;;;;;;;;;;;;;;;;5111159;28;19918;-60
2021/07/11 15:37:55;;;;;;;;;;;;;;;;;;5110775;28;19912;-60
2021/07/11 15:40:20;;;;;;;;;;;;;;;;;;5111638;28;19958;-60
2021/07/11 15:42:46;;;;;;;;;;;;;;;;;;5100788;28;19974;-59
2021/07/11 15:45:12;;;;;;;;;;;;;;;;;;5117756;27;19915;-58
2021/07/11 15:47:38;;;;;;;;;;;;;;;;;;5114455;27;19916;-59
2021/07/11 15:50:09;;;;;;;;;;;;;;;;;;5119011;27;20379;-59
2021/07/11 15:52:35;;;;;;;;;;;;;;;;;;5118183;27;20199;-58
2021/07/11 15:55:02;;;;;;;;;;;;;;;;;;5122041;27;19916;-60
2021/07/11 15:57:28;;;;;;;;;;;;;;;;;;5122590;27;19919;-59
2021/07/11 15:59:54;;;;;;;;;;;;;;;;;;5126712;27;19908;-59
2021/07/11 16:02:20;;;;;;;;;;;;;;;;;;5125741;27;19918;-59
2021/07/11 16:04:46;;;;;;;;;;;;;;;;;;5125761;27;19937;-59
2021/07/11 16:07:12;;;;;;;;;;;;;;;;;;5129278;27;19969;-60
2021/07/11 16:09:37;;;;;;;;;;;;;;;;;;5118715;27;19929;-60
2021/07/11 16:12:03;;;;;;;;;;;;;;;;;;5102621;28;20002;-60
2021/07/11 16:14:29;;;;;;;;;;;;;;;;;;5104117;28;20113;-60
2021/07/11 16:16:55;;;;;;;;;;;;;;;;;;5103236;28;19991;-60
2021/07/11 16:19:21;;;;;;;;;;;;;;;;;;5115097;28;19977;-60
2021/07/11 16:21:47;;;;;;;;;;;;;;;;;;5100056;28;20314;-59
2021/07/11 16:24:14;;;;;;;;;;;;;;;;;;5102696;28;19913;-59
2021/07/11 16:26:40;;;;;;;;;;;;;;;;;;5110104;28;19989;-59
2021/07/11 16:29:05;;;;;;;;;;;;;;;;;;5109006;28;19998;-59
2021/07/11 16:31:31;;;;;;;;;;;;;;;;;;5103506;28;19919;-59
2021/07/11 16:33:57;;;;;;;;;;;;;;;;;;5100279;28;20284;-59
2021/07/11 16:36:23;;;;;;;;;;;;;;;;;;5086899;28;19908;-58